sensor_id;sensor_type;location;lat;lon;timestamp;P1;durP1;ratioP1;P2;durP2;ratioP2
9424;SDS011;17139;52.140;11.636;2023-05-23T00:00:32;5.80;;;5.40;;
9424;SDS011;17139;52.140;11.636;2023-05-23T00:03:01;5.90;;;4.93;;
9424;SDS011;17139;52.140;11.636;2023-05-23T00:05:28;4.95;;;4.72;;
9424;SDS011;17139;52.140;11.636;2023-05-23T00:07:55;5.90;;;5.43;;
9424;SDS011;17139;52.140;11.636;2023-05-23T00:10:22;4.95;;;4.75;;
9424;SDS011;17139;52.140;11.636;2023-05-23T00:12:49;5.50;;;4.97;;
9424;SDS011;17139;52.140;11.636;2023-05-23T00:15:16;5.57;;;5.22;;
9424;SDS011;17139;52.140;11.636;2023-05-23T00:17:45;4.65;;;4.45;;
9424;SDS011;17139;52.140;11.636;2023-05-23T00:20:12;5.00;;;4.70;;
9424;SDS011;17139;52.140;11.636;2023-05-23T00:22:40;4.82;;;4.63;;
9424;SDS011;17139;52.140;11.636;2023-05-23T00:25:07;4.47;;;4.10;;
9424;SDS011;17139;52.140;11.636;2023-05-23T00:27:35;5.72;;;5.43;;
9424;SDS011;17139;52.140;11.636;2023-05-23T00:30:02;5.10;;;4.80;;
9424;SDS011;17139;52.140;11.636;2023-05-23T00:32:30;4.85;;;4.55;;
9424;SDS011;17139;52.140;11.636;2023-05-23T00:34:58;5.32;;;5.03;;
9424;SDS011;17139;52.140;11.636;2023-05-23T00:37:25;5.78;;;5.28;;
9424;SDS011;17139;52.140;11.636;2023-05-23T00:39:52;5.00;;;4.70;;
9424;SDS011;17139;52.140;11.636;2023-05-23T00:42:19;4.93;;;4.63;;
9424;SDS011;17139;52.140;11.636;2023-05-23T00:44:46;4.15;;;3.95;;
9424;SDS011;17139;52.140;11.636;2023-05-23T00:47:13;5.30;;;5.00;;
9424;SDS011;17139;52.140;11.636;2023-05-23T00:49:40;4.10;;;4.00;;
9424;SDS011;17139;52.140;11.636;2023-05-23T00:52:09;4.80;;;4.50;;
9424;SDS011;17139;52.140;11.636;2023-05-23T00:54:36;4.03;;;3.80;;
9424;SDS011;17139;52.140;11.636;2023-05-23T00:57:05;4.18;;;3.97;;
9424;SDS011;17139;52.140;11.636;2023-05-23T00:59:32;4.68;;;4.28;;
9424;SDS011;17139;52.140;11.636;2023-05-23T01:02:03;4.70;;;4.50;;
9424;SDS011;17139;52.140;11.636;2023-05-23T01:04:30;6.35;;;5.60;;
9424;SDS011;17139;52.140;11.636;2023-05-23T01:06:58;5.70;;;5.40;;
9424;SDS011;17139;52.140;11.636;2023-05-23T01:09:27;4.88;;;4.68;;
9424;SDS011;17139;52.140;11.636;2023-05-23T01:11:57;4.88;;;4.57;;
9424;SDS011;17139;52.140;11.636;2023-05-23T01:14:34;5.13;;;4.80;;
9424;SDS011;17139;52.140;11.636;2023-05-23T01:17:09;5.57;;;5.25;;
9424;SDS011;17139;52.140;11.636;2023-05-23T01:19:54;5.63;;;5.15;;
9424;SDS011;17139;52.140;11.636;2023-05-23T01:22:32;6.93;;;6.38;;
9424;SDS011;17139;52.140;11.636;2023-05-23T01:25:29;5.75;;;5.40;;
9424;SDS011;17139;52.140;11.636;2023-05-23T01:28:06;5.87;;;5.47;;
9424;SDS011;17139;52.140;11.636;2023-05-23T01:30:38;5.90;;;5.60;;
9424;SDS011;17139;52.140;11.636;2023-05-23T01:33:06;6.00;;;5.50;;
9424;SDS011;17139;52.140;11.636;2023-05-23T01:35:34;6.10;;;5.80;;
9424;SDS011;17139;52.140;11.636;2023-05-23T01:38:01;5.35;;;5.05;;
9424;SDS011;17139;52.140;11.636;2023-05-23T01:40:28;5.72;;;5.43;;
9424;SDS011;17139;52.140;11.636;2023-05-23T01:42:55;6.05;;;5.75;;
9424;SDS011;17139;52.140;11.636;2023-05-23T01:45:25;6.72;;;6.32;;
9424;SDS011;17139;52.140;11.636;2023-05-23T01:47:53;6.70;;;6.30;;
9424;SDS011;17139;52.140;11.636;2023-05-23T01:50:22;5.95;;;5.65;;
9424;SDS011;17139;52.140;11.636;2023-05-23T01:52:50;6.13;;;5.63;;
9424;SDS011;17139;52.140;11.636;2023-05-23T01:55:18;5.80;;;5.53;;
9424;SDS011;17139;52.140;11.636;2023-05-23T01:57:48;5.55;;;5.20;;
9424;SDS011;17139;52.140;11.636;2023-05-23T02:00:17;6.07;;;5.68;;
9424;SDS011;17139;52.140;11.636;2023-05-23T02:02:46;6.18;;;5.78;;
9424;SDS011;17139;52.140;11.636;2023-05-23T02:05:13;5.70;;;5.40;;
9424;SDS011;17139;52.140;11.636;2023-05-23T02:07:40;6.33;;;5.83;;
9424;SDS011;17139;52.140;11.636;2023-05-23T02:10:07;6.15;;;5.68;;
9424;SDS011;17139;52.140;11.636;2023-05-23T02:12:35;5.57;;;5.38;;
9424;SDS011;17139;52.140;11.636;2023-05-23T02:15:02;6.00;;;5.47;;
9424;SDS011;17139;52.140;11.636;2023-05-23T02:17:29;6.35;;;6.03;;
9424;SDS011;17139;52.140;11.636;2023-05-23T02:19:57;6.40;;;6.07;;
9424;SDS011;17139;52.140;11.636;2023-05-23T02:22:25;6.63;;;6.22;;
9424;SDS011;17139;52.140;11.636;2023-05-23T02:24:53;8.63;;;8.10;;
9424;SDS011;17139;52.140;11.636;2023-05-23T02:27:20;8.18;;;7.68;;
9424;SDS011;17139;52.140;11.636;2023-05-23T02:29:47;6.80;;;6.40;;
9424;SDS011;17139;52.140;11.636;2023-05-23T02:32:14;6.80;;;6.40;;
9424;SDS011;17139;52.140;11.636;2023-05-23T02:34:41;6.65;;;6.20;;
9424;SDS011;17139;52.140;11.636;2023-05-23T02:37:12;7.22;;;6.55;;
9424;SDS011;17139;52.140;11.636;2023-05-23T02:39:39;7.20;;;6.68;;
9424;SDS011;17139;52.140;11.636;2023-05-23T02:42:06;7.72;;;7.30;;
9424;SDS011;17139;52.140;11.636;2023-05-23T02:44:33;7.15;;;6.85;;
9424;SDS011;17139;52.140;11.636;2023-05-23T02:47:00;6.53;;;6.13;;
9424;SDS011;17139;52.140;11.636;2023-05-23T02:49:27;5.95;;;5.65;;
9424;SDS011;17139;52.140;11.636;2023-05-23T02:51:54;7.13;;;6.72;;
9424;SDS011;17139;52.140;11.636;2023-05-23T02:54:22;6.45;;;6.05;;
9424;SDS011;17139;52.140;11.636;2023-05-23T02:56:50;6.60;;;6.18;;
9424;SDS011;17139;52.140;11.636;2023-05-23T02:59:18;6.45;;;6.05;;
9424;SDS011;17139;52.140;11.636;2023-05-23T03:01:46;7.82;;;7.18;;
9424;SDS011;17139;52.140;11.636;2023-05-23T03:04:13;6.75;;;6.43;;
9424;SDS011;17139;52.140;11.636;2023-05-23T03:06:40;7.72;;;7.22;;
9424;SDS011;17139;52.140;11.636;2023-05-23T03:09:08;7.72;;;7.03;;
9424;SDS011;17139;52.140;11.636;2023-05-23T03:11:37;6.60;;;6.30;;
9424;SDS011;17139;52.140;11.636;2023-05-23T03:14:04;7.53;;;7.13;;
9424;SDS011;17139;52.140;11.636;2023-05-23T03:16:31;6.93;;;6.43;;
9424;SDS011;17139;52.140;11.636;2023-05-23T03:18:58;6.10;;;5.82;;
9424;SDS011;17139;52.140;11.636;2023-05-23T03:21:26;6.93;;;6.32;;
9424;SDS011;17139;52.140;11.636;2023-05-23T03:23:52;7.15;;;6.45;;
9424;SDS011;17139;52.140;11.636;2023-05-23T03:26:19;10.93;;;10.20;;
9424;SDS011;17139;52.140;11.636;2023-05-23T03:28:48;8.15;;;7.65;;
9424;SDS011;17139;52.140;11.636;2023-05-23T03:31:15;8.10;;;7.70;;
9424;SDS011;17139;52.140;11.636;2023-05-23T03:33:42;8.40;;;7.90;;
9424;SDS011;17139;52.140;11.636;2023-05-23T03:36:09;7.03;;;6.72;;
9424;SDS011;17139;52.140;11.636;2023-05-23T03:38:36;8.15;;;7.55;;
9424;SDS011;17139;52.140;11.636;2023-05-23T03:41:03;7.75;;;7.15;;
9424;SDS011;17139;52.140;11.636;2023-05-23T03:43:30;7.15;;;6.50;;
9424;SDS011;17139;52.140;11.636;2023-05-23T03:45:59;7.22;;;6.85;;
9424;SDS011;17139;52.140;11.636;2023-05-23T03:48:26;7.38;;;6.88;;
9424;SDS011;17139;52.140;11.636;2023-05-23T03:50:54;7.78;;;7.10;;
9424;SDS011;17139;52.140;11.636;2023-05-23T03:53:21;7.50;;;7.07;;
9424;SDS011;17139;52.140;11.636;2023-05-23T03:55:48;7.20;;;6.63;;
9424;SDS011;17139;52.140;11.636;2023-05-23T03:58:18;8.25;;;7.38;;
9424;SDS011;17139;52.140;11.636;2023-05-23T04:00:45;7.10;;;6.70;;
9424;SDS011;17139;52.140;11.636;2023-05-23T04:03:14;10.20;;;9.50;;
9424;SDS011;17139;52.140;11.636;2023-05-23T04:05:41;8.13;;;7.63;;
9424;SDS011;17139;52.140;11.636;2023-05-23T04:08:08;8.05;;;7.45;;
9424;SDS011;17139;52.140;11.636;2023-05-23T04:10:35;11.03;;;10.33;;
9424;SDS011;17139;52.140;11.636;2023-05-23T04:13:02;8.55;;;8.05;;
9424;SDS011;17139;52.140;11.636;2023-05-23T04:15:30;7.90;;;7.30;;
9424;SDS011;17139;52.140;11.636;2023-05-23T04:17:58;8.07;;;7.47;;
9424;SDS011;17139;52.140;11.636;2023-05-23T04:20:30;8.40;;;7.90;;
9424;SDS011;17139;52.140;11.636;2023-05-23T04:22:57;11.18;;;10.38;;
9424;SDS011;17139;52.140;11.636;2023-05-23T04:25:24;10.98;;;10.07;;
9424;SDS011;17139;52.140;11.636;2023-05-23T04:27:51;11.55;;;10.65;;
9424;SDS011;17139;52.140;11.636;2023-05-23T04:30:20;9.60;;;8.90;;
9424;SDS011;17139;52.140;11.636;2023-05-23T04:32:47;9.55;;;8.85;;
9424;SDS011;17139;52.140;11.636;2023-05-23T04:35:14;8.57;;;7.97;;
9424;SDS011;17139;52.140;11.636;2023-05-23T04:37:42;9.90;;;9.15;;
9424;SDS011;17139;52.140;11.636;2023-05-23T04:40:11;10.50;;;9.07;;
9424;SDS011;17139;52.140;11.636;2023-05-23T04:42:38;10.55;;;9.75;;
9424;SDS011;17139;52.140;11.636;2023-05-23T04:45:07;11.75;;;10.90;;
9424;SDS011;17139;52.140;11.636;2023-05-23T04:47:35;10.52;;;9.63;;
9424;SDS011;17139;52.140;11.636;2023-05-23T04:50:02;11.85;;;10.32;;
9424;SDS011;17139;52.140;11.636;2023-05-23T04:52:29;13.20;;;12.13;;
9424;SDS011;17139;52.140;11.636;2023-05-23T04:54:59;12.05;;;10.90;;
9424;SDS011;17139;52.140;11.636;2023-05-23T04:57:26;13.50;;;12.35;;
9424;SDS011;17139;52.140;11.636;2023-05-23T04:59:53;18.53;;;16.93;;
9424;SDS011;17139;52.140;11.636;2023-05-23T05:02:21;14.07;;;12.90;;
9424;SDS011;17139;52.140;11.636;2023-05-23T05:04:50;14.70;;;13.45;;
9424;SDS011;17139;52.140;11.636;2023-05-23T05:07:17;14.10;;;12.93;;
9424;SDS011;17139;52.140;11.636;2023-05-23T05:09:44;13.95;;;12.73;;
9424;SDS011;17139;52.140;11.636;2023-05-23T05:12:13;15.13;;;13.55;;
9424;SDS011;17139;52.140;11.636;2023-05-23T05:14:40;14.73;;;13.20;;
9424;SDS011;17139;52.140;11.636;2023-05-23T05:17:07;14.27;;;12.98;;
9424;SDS011;17139;52.140;11.636;2023-05-23T05:19:34;14.85;;;13.43;;
9424;SDS011;17139;52.140;11.636;2023-05-23T05:22:01;16.35;;;14.77;;
9424;SDS011;17139;52.140;11.636;2023-05-23T05:24:28;16.48;;;15.07;;
9424;SDS011;17139;52.140;11.636;2023-05-23T05:26:56;14.93;;;13.38;;
9424;SDS011;17139;52.140;11.636;2023-05-23T05:29:25;18.65;;;16.38;;
9424;SDS011;17139;52.140;11.636;2023-05-23T05:31:52;15.80;;;14.13;;
9424;SDS011;17139;52.140;11.636;2023-05-23T05:34:19;21.90;;;17.02;;
9424;SDS011;17139;52.140;11.636;2023-05-23T05:36:46;21.25;;;15.80;;
9424;SDS011;17139;52.140;11.636;2023-05-23T05:39:14;15.88;;;14.40;;
9424;SDS011;17139;52.140;11.636;2023-05-23T05:41:41;19.75;;;17.80;;
9424;SDS011;17139;52.140;11.636;2023-05-23T05:44:08;11.95;;;11.00;;
9424;SDS011;17139;52.140;11.636;2023-05-23T05:46:37;8.65;;;8.02;;
9424;SDS011;17139;52.140;11.636;2023-05-23T05:49:04;7.47;;;6.90;;
9424;SDS011;17139;52.140;11.636;2023-05-23T05:51:30;8.90;;;8.20;;
9424;SDS011;17139;52.140;11.636;2023-05-23T05:53:58;7.72;;;7.03;;
9424;SDS011;17139;52.140;11.636;2023-05-23T05:56:25;8.52;;;7.90;;
9424;SDS011;17139;52.140;11.636;2023-05-23T05:58:52;9.02;;;8.18;;
9424;SDS011;17139;52.140;11.636;2023-05-23T06:01:19;9.40;;;7.45;;
9424;SDS011;17139;52.140;11.636;2023-05-23T06:03:47;7.97;;;7.10;;
9424;SDS011;17139;52.140;11.636;2023-05-23T06:06:14;10.40;;;9.52;;
9424;SDS011;17139;52.140;11.636;2023-05-23T06:08:41;10.95;;;9.93;;
9424;SDS011;17139;52.140;11.636;2023-05-23T06:11:09;8.60;;;8.00;;
9424;SDS011;17139;52.140;11.636;2023-05-23T06:13:36;7.93;;;7.13;;
9424;SDS011;17139;52.140;11.636;2023-05-23T06:16:03;8.73;;;7.40;;
9424;SDS011;17139;52.140;11.636;2023-05-23T06:18:31;6.97;;;6.22;;
9424;SDS011;17139;52.140;11.636;2023-05-23T06:20:59;6.85;;;6.47;;
9424;SDS011;17139;52.140;11.636;2023-05-23T06:23:26;8.55;;;7.90;;
9424;SDS011;17139;52.140;11.636;2023-05-23T06:25:53;11.17;;;10.33;;
9424;SDS011;17139;52.140;11.636;2023-05-23T06:28:20;11.13;;;10.23;;
9424;SDS011;17139;52.140;11.636;2023-05-23T06:30:47;8.27;;;7.57;;
9424;SDS011;17139;52.140;11.636;2023-05-23T06:33:14;10.48;;;9.15;;
9424;SDS011;17139;52.140;11.636;2023-05-23T06:35:41;8.75;;;8.10;;
9424;SDS011;17139;52.140;11.636;2023-05-23T06:38:10;9.35;;;8.45;;
9424;SDS011;17139;52.140;11.636;2023-05-23T06:40:37;9.13;;;8.45;;
9424;SDS011;17139;52.140;11.636;2023-05-23T06:43:04;9.45;;;8.73;;
9424;SDS011;17139;52.140;11.636;2023-05-23T06:45:31;8.30;;;7.60;;
9424;SDS011;17139;52.140;11.636;2023-05-23T06:47:59;9.15;;;8.25;;
9424;SDS011;17139;52.140;11.636;2023-05-23T06:50:26;7.22;;;6.53;;
9424;SDS011;17139;52.140;11.636;2023-05-23T06:52:53;5.95;;;5.65;;
9424;SDS011;17139;52.140;11.636;2023-05-23T06:55:23;5.18;;;4.82;;
9424;SDS011;17139;52.140;11.636;2023-05-23T06:57:51;7.40;;;6.63;;
9424;SDS011;17139;52.140;11.636;2023-05-23T07:00:20;5.57;;;5.18;;
9424;SDS011;17139;52.140;11.636;2023-05-23T07:02:47;5.38;;;5.07;;
9424;SDS011;17139;52.140;11.636;2023-05-23T07:05:14;5.03;;;4.80;;
9424;SDS011;17139;52.140;11.636;2023-05-23T07:07:42;5.82;;;5.03;;
9424;SDS011;17139;52.140;11.636;2023-05-23T07:10:09;5.38;;;5.10;;
9424;SDS011;17139;52.140;11.636;2023-05-23T07:12:38;6.18;;;5.88;;
9424;SDS011;17139;52.140;11.636;2023-05-23T07:15:05;5.60;;;5.30;;
9424;SDS011;17139;52.140;11.636;2023-05-23T07:17:33;5.05;;;4.80;;
9424;SDS011;17139;52.140;11.636;2023-05-23T07:20:00;6.15;;;5.70;;
9424;SDS011;17139;52.140;11.636;2023-05-23T07:22:28;5.97;;;5.57;;
9424;SDS011;17139;52.140;11.636;2023-05-23T07:24:55;7.15;;;6.60;;
9424;SDS011;17139;52.140;11.636;2023-05-23T07:27:22;7.03;;;6.63;;
9424;SDS011;17139;52.140;11.636;2023-05-23T07:29:51;6.03;;;5.72;;
9424;SDS011;17139;52.140;11.636;2023-05-23T07:32:18;6.45;;;5.95;;
9424;SDS011;17139;52.140;11.636;2023-05-23T07:34:45;6.57;;;6.20;;
9424;SDS011;17139;52.140;11.636;2023-05-23T07:37:12;7.55;;;7.05;;
9424;SDS011;17139;52.140;11.636;2023-05-23T07:39:40;6.63;;;6.22;;
9424;SDS011;17139;52.140;11.636;2023-05-23T07:42:07;6.57;;;6.28;;
9424;SDS011;17139;52.140;11.636;2023-05-23T07:44:34;9.57;;;8.77;;
9424;SDS011;17139;52.140;11.636;2023-05-23T07:47:03;8.10;;;7.55;;
9424;SDS011;17139;52.140;11.636;2023-05-23T07:49:30;8.10;;;7.50;;
9424;SDS011;17139;52.140;11.636;2023-05-23T07:51:58;6.82;;;6.43;;
9424;SDS011;17139;52.140;11.636;2023-05-23T07:54:25;7.32;;;6.93;;
9424;SDS011;17139;52.140;11.636;2023-05-23T07:56:52;7.15;;;6.75;;
9424;SDS011;17139;52.140;11.636;2023-05-23T07:59:19;7.03;;;6.65;;
9424;SDS011;17139;52.140;11.636;2023-05-23T08:01:47;8.20;;;7.55;;
9424;SDS011;17139;52.140;11.636;2023-05-23T08:04:16;6.70;;;6.25;;
9424;SDS011;17139;52.140;11.636;2023-05-23T08:06:43;7.28;;;6.75;;
9424;SDS011;17139;52.140;11.636;2023-05-23T08:09:12;6.90;;;6.50;;
9424;SDS011;17139;52.140;11.636;2023-05-23T08:11:39;6.63;;;5.97;;
9424;SDS011;17139;52.140;11.636;2023-05-23T08:14:06;5.90;;;5.20;;
9424;SDS011;17139;52.140;11.636;2023-05-23T08:16:33;5.30;;;5.07;;
9424;SDS011;17139;52.140;11.636;2023-05-23T08:19:01;4.90;;;4.70;;
9424;SDS011;17139;52.140;11.636;2023-05-23T08:21:29;4.90;;;4.50;;
9424;SDS011;17139;52.140;11.636;2023-05-23T08:23:57;4.63;;;4.43;;
9424;SDS011;17139;52.140;11.636;2023-05-23T08:26:24;4.68;;;4.38;;
9424;SDS011;17139;52.140;11.636;2023-05-23T08:28:58;4.22;;;4.00;;
9424;SDS011;17139;52.140;11.636;2023-05-23T08:31:26;3.40;;;3.30;;
9424;SDS011;17139;52.140;11.636;2023-05-23T08:33:53;3.83;;;3.63;;
9424;SDS011;17139;52.140;11.636;2023-05-23T08:36:20;4.32;;;4.10;;
9424;SDS011;17139;52.140;11.636;2023-05-23T08:38:49;4.15;;;3.95;;
9424;SDS011;17139;52.140;11.636;2023-05-23T08:41:18;4.57;;;4.38;;
9424;SDS011;17139;52.140;11.636;2023-05-23T08:43:45;4.65;;;4.18;;
9424;SDS011;17139;52.140;11.636;2023-05-23T08:46:13;5.18;;;4.85;;
9424;SDS011;17139;52.140;11.636;2023-05-23T08:48:41;5.03;;;4.72;;
9424;SDS011;17139;52.140;11.636;2023-05-23T08:51:09;4.93;;;4.57;;
9424;SDS011;17139;52.140;11.636;2023-05-23T08:53:39;4.50;;;4.30;;
9424;SDS011;17139;52.140;11.636;2023-05-23T08:56:09;4.70;;;4.50;;
9424;SDS011;17139;52.140;11.636;2023-05-23T08:58:37;4.93;;;4.63;;
9424;SDS011;17139;52.140;11.636;2023-05-23T09:01:06;4.72;;;4.43;;
9424;SDS011;17139;52.140;11.636;2023-05-23T09:03:34;5.20;;;4.90;;
9424;SDS011;17139;52.140;11.636;2023-05-23T09:06:02;4.75;;;4.35;;
9424;SDS011;17139;52.140;11.636;2023-05-23T09:08:29;4.53;;;4.13;;
9424;SDS011;17139;52.140;11.636;2023-05-23T09:10:57;3.33;;;3.17;;
9424;SDS011;17139;52.140;11.636;2023-05-23T09:13:28;3.60;;;3.40;;
9424;SDS011;17139;52.140;11.636;2023-05-23T09:15:56;3.70;;;3.50;;
9424;SDS011;17139;52.140;11.636;2023-05-23T09:18:32;3.25;;;3.15;;
9424;SDS011;17139;52.140;11.636;2023-05-23T09:21:00;4.30;;;4.10;;
9424;SDS011;17139;52.140;11.636;2023-05-23T09:23:28;3.78;;;3.67;;
9424;SDS011;17139;52.140;11.636;2023-05-23T09:25:59;6.05;;;3.50;;
9424;SDS011;17139;52.140;11.636;2023-05-23T09:28:29;4.47;;;4.28;;
9424;SDS011;17139;52.140;11.636;2023-05-23T09:30:58;4.38;;;4.18;;
9424;SDS011;17139;52.140;11.636;2023-05-23T09:33:28;3.47;;;3.38;;
9424;SDS011;17139;52.140;11.636;2023-05-23T09:36:03;2.97;;;2.88;;
9424;SDS011;17139;52.140;11.636;2023-05-23T09:38:30;2.90;;;2.80;;
9424;SDS011;17139;52.140;11.636;2023-05-23T09:40:58;3.38;;;2.58;;
9424;SDS011;17139;52.140;11.636;2023-05-23T09:43:25;2.90;;;2.80;;
9424;SDS011;17139;52.140;11.636;2023-05-23T09:45:55;3.57;;;3.37;;
9424;SDS011;17139;52.140;11.636;2023-05-23T09:48:27;3.75;;;3.47;;
9424;SDS011;17139;52.140;11.636;2023-05-23T09:50:55;3.40;;;3.30;;
9424;SDS011;17139;52.140;11.636;2023-05-23T09:53:22;3.80;;;3.60;;
9424;SDS011;17139;52.140;11.636;2023-05-23T09:55:49;3.35;;;3.15;;
9424;SDS011;17139;52.140;11.636;2023-05-23T09:58:18;3.40;;;3.30;;
9424;SDS011;17139;52.140;11.636;2023-05-23T10:00:48;4.15;;;3.95;;
9424;SDS011;17139;52.140;11.636;2023-05-23T10:03:20;4.30;;;4.10;;
9424;SDS011;17139;52.140;11.636;2023-05-23T10:05:54;4.00;;;3.80;;
9424;SDS011;17139;52.140;11.636;2023-05-23T10:08:26;4.43;;;4.22;;
9424;SDS011;17139;52.140;11.636;2023-05-23T10:14:14;4.20;;;3.85;;
9424;SDS011;17139;52.140;11.636;2023-05-23T10:16:43;3.70;;;3.58;;
9424;SDS011;17139;52.140;11.636;2023-05-23T10:19:22;4.70;;;4.50;;
9424;SDS011;17139;52.140;11.636;2023-05-23T10:21:54;3.90;;;3.67;;
9424;SDS011;17139;52.140;11.636;2023-05-23T10:24:24;3.88;;;3.70;;
9424;SDS011;17139;52.140;11.636;2023-05-23T10:26:52;4.93;;;4.63;;
9424;SDS011;17139;52.140;11.636;2023-05-23T10:29:20;4.28;;;3.90;;
9424;SDS011;17139;52.140;11.636;2023-05-23T10:31:48;3.83;;;3.42;;
9424;SDS011;17139;52.140;11.636;2023-05-23T10:34:18;3.72;;;3.40;;
9424;SDS011;17139;52.140;11.636;2023-05-23T10:36:55;3.20;;;3.00;;
9424;SDS011;17139;52.140;11.636;2023-05-23T10:39:29;2.92;;;2.83;;
9424;SDS011;17139;52.140;11.636;2023-05-23T10:42:09;2.92;;;2.65;;
9424;SDS011;17139;52.140;11.636;2023-05-23T10:44:40;4.03;;;3.83;;
9424;SDS011;17139;52.140;11.636;2023-05-23T10:47:07;4.43;;;4.13;;
9424;SDS011;17139;52.140;11.636;2023-05-23T10:49:38;3.00;;;2.90;;
9424;SDS011;17139;52.140;11.636;2023-05-23T10:52:06;2.70;;;2.60;;
9424;SDS011;17139;52.140;11.636;2023-05-23T10:54:34;2.30;;;2.20;;
9424;SDS011;17139;52.140;11.636;2023-05-23T10:57:02;2.40;;;2.30;;
9424;SDS011;17139;52.140;11.636;2023-05-23T10:59:30;2.40;;;2.25;;
9424;SDS011;17139;52.140;11.636;2023-05-23T11:01:58;2.47;;;2.38;;
9424;SDS011;17139;52.140;11.636;2023-05-23T11:04:26;3.35;;;3.25;;
9424;SDS011;17139;52.140;11.636;2023-05-23T11:06:55;3.55;;;3.45;;
9424;SDS011;17139;52.140;11.636;2023-05-23T11:09:23;3.63;;;3.40;;
9424;SDS011;17139;52.140;11.636;2023-05-23T11:11:50;3.05;;;2.70;;
9424;SDS011;17139;52.140;11.636;2023-05-23T11:14:19;3.08;;;2.88;;
9424;SDS011;17139;52.140;11.636;2023-05-23T11:16:46;2.72;;;2.63;;
9424;SDS011;17139;52.140;11.636;2023-05-23T11:19:20;7.45;;;2.70;;
9424;SDS011;17139;52.140;11.636;2023-05-23T11:21:51;3.50;;;3.40;;
9424;SDS011;17139;52.140;11.636;2023-05-23T11:24:21;3.05;;;2.95;;
9424;SDS011;17139;52.140;11.636;2023-05-23T11:26:52;2.92;;;2.80;;
9424;SDS011;17139;52.140;11.636;2023-05-23T11:29:24;5.00;;;4.80;;
9424;SDS011;17139;52.140;11.636;2023-05-23T11:31:52;3.55;;;3.35;;
9424;SDS011;17139;52.140;11.636;2023-05-23T11:34:20;3.60;;;3.40;;
9424;SDS011;17139;52.140;11.636;2023-05-23T11:36:50;4.22;;;4.07;;
9424;SDS011;17139;52.140;11.636;2023-05-23T11:39:20;4.20;;;4.00;;
9424;SDS011;17139;52.140;11.636;2023-05-23T11:41:57;2.67;;;2.47;;
9424;SDS011;17139;52.140;11.636;2023-05-23T11:44:25;3.67;;;3.55;;
9424;SDS011;17139;52.140;11.636;2023-05-23T11:46:59;4.80;;;4.60;;
9424;SDS011;17139;52.140;11.636;2023-05-23T11:49:27;5.80;;;5.35;;
9424;SDS011;17139;52.140;11.636;2023-05-23T11:51:55;3.90;;;3.70;;
9424;SDS011;17139;52.140;11.636;2023-05-23T11:54:24;4.07;;;3.90;;
9424;SDS011;17139;52.140;11.636;2023-05-23T11:56:52;3.25;;;2.97;;
9424;SDS011;17139;52.140;11.636;2023-05-23T11:59:20;3.70;;;3.50;;
9424;SDS011;17139;52.140;11.636;2023-05-23T12:01:47;4.00;;;3.80;;
9424;SDS011;17139;52.140;11.636;2023-05-23T12:04:14;3.50;;;3.20;;
9424;SDS011;17139;52.140;11.636;2023-05-23T12:06:41;4.93;;;4.65;;
9424;SDS011;17139;52.140;11.636;2023-05-23T12:09:11;4.90;;;4.43;;
9424;SDS011;17139;52.140;11.636;2023-05-23T12:11:40;2.88;;;2.78;;
9424;SDS011;17139;52.140;11.636;2023-05-23T12:14:08;3.78;;;3.10;;
9424;SDS011;17139;52.140;11.636;2023-05-23T12:16:41;1.45;;;1.45;;
9424;SDS011;17139;52.140;11.636;2023-05-23T12:19:10;2.40;;;2.30;;
9424;SDS011;17139;52.140;11.636;2023-05-23T12:21:43;1.35;;;1.35;;
9424;SDS011;17139;52.140;11.636;2023-05-23T12:24:14;2.83;;;2.72;;
9424;SDS011;17139;52.140;11.636;2023-05-23T12:26:50;2.90;;;2.70;;
9424;SDS011;17139;52.140;11.636;2023-05-23T12:29:18;3.33;;;3.13;;
9424;SDS011;17139;52.140;11.636;2023-05-23T12:31:56;1.63;;;1.63;;
9424;SDS011;17139;52.140;11.636;2023-05-23T12:34:24;3.35;;;3.20;;
9424;SDS011;17139;52.140;11.636;2023-05-23T12:36:54;3.22;;;3.13;;
9424;SDS011;17139;52.140;11.636;2023-05-23T12:39:25;2.75;;;2.65;;
9424;SDS011;17139;52.140;11.636;2023-05-23T12:41:54;3.00;;;2.90;;
9424;SDS011;17139;52.140;11.636;2023-05-23T12:44:32;2.35;;;2.25;;
9424;SDS011;17139;52.140;11.636;2023-05-23T12:46:59;2.95;;;2.85;;
9424;SDS011;17139;52.140;11.636;2023-05-23T12:49:26;3.08;;;2.88;;
9424;SDS011;17139;52.140;11.636;2023-05-23T12:51:53;2.08;;;1.98;;
9424;SDS011;17139;52.140;11.636;2023-05-23T12:54:20;3.33;;;1.20;;
9424;SDS011;17139;52.140;11.636;2023-05-23T12:56:47;0.90;;;0.90;;
9424;SDS011;17139;52.140;11.636;2023-05-23T12:59:16;0.80;;;0.80;;
9424;SDS011;17139;52.140;11.636;2023-05-23T13:01:43;1.02;;;1.02;;
9424;SDS011;17139;52.140;11.636;2023-05-23T13:04:11;1.48;;;0.80;;
9424;SDS011;17139;52.140;11.636;2023-05-23T13:06:38;0.95;;;0.95;;
9424;SDS011;17139;52.140;11.636;2023-05-23T13:09:05;1.23;;;1.23;;
9424;SDS011;17139;52.140;11.636;2023-05-23T13:11:32;1.20;;;1.20;;
9424;SDS011;17139;52.140;11.636;2023-05-23T13:13:59;1.20;;;1.20;;
9424;SDS011;17139;52.140;11.636;2023-05-23T13:16:27;1.23;;;1.23;;
9424;SDS011;17139;52.140;11.636;2023-05-23T13:18:57;1.10;;;1.10;;
9424;SDS011;17139;52.140;11.636;2023-05-23T13:21:24;1.10;;;1.10;;
9424;SDS011;17139;52.140;11.636;2023-05-23T13:23:51;1.25;;;1.25;;
9424;SDS011;17139;52.140;11.636;2023-05-23T13:26:18;0.63;;;0.63;;
9424;SDS011;17139;52.140;11.636;2023-05-23T13:28:45;1.33;;;1.23;;
9424;SDS011;17139;52.140;11.636;2023-05-23T13:31:12;1.80;;;1.70;;
9424;SDS011;17139;52.140;11.636;2023-05-23T13:33:41;0.88;;;0.88;;
9424;SDS011;17139;52.140;11.636;2023-05-23T13:36:08;1.70;;;1.70;;
9424;SDS011;17139;52.140;11.636;2023-05-23T13:38:36;2.05;;;1.95;;
9424;SDS011;17139;52.140;11.636;2023-05-23T13:41:03;1.83;;;1.70;;
9424;SDS011;17139;52.140;11.636;2023-05-23T13:43:30;1.77;;;1.67;;
9424;SDS011;17139;52.140;11.636;2023-05-23T13:45:57;2.08;;;1.98;;
9424;SDS011;17139;52.140;11.636;2023-05-23T13:48:26;3.53;;;3.33;;
9424;SDS011;17139;52.140;11.636;2023-05-23T13:50:54;3.05;;;2.95;;
9424;SDS011;17139;52.140;11.636;2023-05-23T13:53:21;2.50;;;2.40;;
9424;SDS011;17139;52.140;11.636;2023-05-23T13:55:48;2.55;;;2.45;;
9424;SDS011;17139;52.140;11.636;2023-05-23T13:58:15;2.20;;;2.10;;
9424;SDS011;17139;52.140;11.636;2023-05-23T14:00:42;3.53;;;2.33;;
9424;SDS011;17139;52.140;11.636;2023-05-23T14:03:10;2.28;;;2.17;;
9424;SDS011;17139;52.140;11.636;2023-05-23T14:05:37;3.22;;;3.03;;
9424;SDS011;17139;52.140;11.636;2023-05-23T14:08:05;3.55;;;3.20;;
9424;SDS011;17139;52.140;11.636;2023-05-23T14:10:32;0.82;;;0.82;;
9424;SDS011;17139;52.140;11.636;2023-05-23T14:12:59;2.15;;;1.98;;
9424;SDS011;17139;52.140;11.636;2023-05-23T14:15:26;1.70;;;1.70;;
9424;SDS011;17139;52.140;11.636;2023-05-23T14:17:54;2.75;;;2.55;;
9424;SDS011;17139;52.140;11.636;2023-05-23T14:20:21;3.00;;;2.80;;
9424;SDS011;17139;52.140;11.636;2023-05-23T14:22:48;3.15;;;2.95;;
9424;SDS011;17139;52.140;11.636;2023-05-23T14:25:17;5.28;;;3.00;;
9424;SDS011;17139;52.140;11.636;2023-05-23T14:27:46;5.97;;;3.05;;
9424;SDS011;17139;52.140;11.636;2023-05-23T14:30:13;4.25;;;2.25;;
9424;SDS011;17139;52.140;11.636;2023-05-23T14:32:40;7.00;;;3.67;;
9424;SDS011;17139;52.140;11.636;2023-05-23T14:35:08;4.50;;;3.95;;
9424;SDS011;17139;52.140;11.636;2023-05-23T14:37:36;6.93;;;3.63;;
9424;SDS011;17139;52.140;11.636;2023-05-23T14:40:03;5.25;;;2.83;;
9424;SDS011;17139;52.140;11.636;2023-05-23T14:42:32;3.17;;;2.97;;
9424;SDS011;17139;52.140;11.636;2023-05-23T14:44:59;2.22;;;2.05;;
9424;SDS011;17139;52.140;11.636;2023-05-23T14:47:27;5.38;;;3.30;;
9424;SDS011;17139;52.140;11.636;2023-05-23T14:49:54;3.20;;;3.00;;
9424;SDS011;17139;52.140;11.636;2023-05-23T14:52:21;4.43;;;3.55;;
9424;SDS011;17139;52.140;11.636;2023-05-23T14:54:48;4.28;;;3.30;;